Time;durP1;ratioP1;P1;durP2;ratioP2;P2;SDS_P1;SDS_P2;PMS_P1;PMS_P2;Temp;Humidity;BMP_temperature;BMP_pressure;BME280_temperature;BME280_humidity;BME280_pressure;Samples;Min_cycle;Max_cycle;Signal;HPM_P1;HPM_P2
2023/04/30 00:00:40;;;;;;;12.90;9.57;;;7.50;99.90;;;;;;5115838;28;20205;-71
2023/04/30 00:03:06;;;;;;;13.53;9.87;;;7.40;1.00;;;;;;5117408;28;20522;-71
2023/04/30 00:05:32;;;;;;;13.10;9.97;;;7.30;18.70;;;;;;5115557;28;20215;-71
2023/04/30 00:07:58;;;;;;;11.83;9.93;;;7.30;99.90;;;;;;5116974;28;20261;-71
2023/04/30 00:10:23;;;;;;;12.47;9.07;;;7.20;99.90;;;;;;5115291;28;20204;-71
2023/04/30 00:12:49;;;;;;;11.43;8.87;;;7.20;1.00;;;;;;5115360;28;20172;-71
2023/04/30 00:15:15;;;;;;;12.47;9.10;;;7.10;1.00;;;;;;5117125;28;20614;-71
2023/04/30 00:17:40;;;;;;;11.73;9.50;;;7.00;99.90;;;;;;5116918;28;20241;-71
2023/04/30 00:20:07;;;;;;;12.53;9.60;;;7.00;99.90;;;;;;5117132;28;20241;-71
2023/04/30 00:22:32;;;;;;;13.83;9.33;;;7.00;99.90;;;;;;5115133;28;20183;-70
2023/04/30 00:24:58;;;;;;;13.30;8.83;;;6.90;99.90;;;;;;5114989;28;20260;-71
2023/04/30 00:27:24;;;;;;;12.47;9.30;;;6.90;1.00;;;;;;5116541;28;20201;-71
2023/04/30 00:29:50;;;;;;;11.17;9.37;;;6.90;1.00;;;;;;5116386;28;20226;-71
2023/04/30 00:32:15;;;;;;;13.10;9.77;;;7.00;29.50;;;;;;5116223;28;20175;-71
2023/04/30 00:34:41;;;;;;;11.50;10.30;;;7.00;1.00;;;;;;5114925;28;20271;-71
2023/04/30 00:37:07;;;;;;;11.77;10.23;;;7.00;1.00;;;;;;5114589;28;20208;-71
2023/04/30 00:39:32;;;;;;;14.03;10.57;;;6.90;99.90;;;;;;5116322;28;20176;-72
2023/04/30 00:41:58;;;;;;;10.90;9.73;;;6.90;99.90;;;;;;5116197;28;20169;-71
2023/04/30 00:44:24;;;;;;;13.97;10.10;;;6.80;1.00;;;;;;5116064;28;20183;-71
2023/04/30 00:46:50;;;;;;;13.97;11.67;;;6.80;1.00;;;;;;5116073;28;20173;-71
2023/04/30 00:49:16;;;;;;;15.00;10.77;;;6.80;1.00;;;;;;5115898;28;20230;-68
2023/04/30 00:51:42;;;;;;;12.93;9.80;;;6.80;1.00;;;;;;5114634;28;20608;-67
2023/04/30 00:54:08;;;;;;;13.67;11.03;;;6.80;1.20;;;;;;5115261;28;20632;-68
2023/04/30 00:56:35;;;;;;;14.00;9.83;;;6.70;1.00;;;;;;5116300;28;20218;-67
2023/04/30 00:59:01;;;;;;;12.37;9.80;;;6.70;1.00;;;;;;5115846;28;20238;-68
2023/04/30 01:01:30;;;;;;;13.67;10.77;;;6.70;1.00;;;;;;5114227;28;20564;-67
2023/04/30 01:03:56;;;;;;;14.90;10.27;;;6.60;80.30;;;;;;5114270;28;20645;-68
2023/04/30 01:06:22;;;;;;;13.50;10.70;;;6.50;89.50;;;;;;5115429;28;20181;-68
2023/04/30 01:08:49;;;;;;;12.53;10.33;;;6.40;1.00;;;;;;5115452;28;20193;-68
2023/04/30 01:11:37;;;;;;;11.80;9.93;;;6.40;99.90;;;;;;5114089;28;20567;-68
2023/04/30 01:14:34;;;;;;;14.90;11.20;;;6.20;1.00;;;;;;5114403;28;20581;-68
2023/04/30 01:17:19;;;;;;;14.00;10.57;;;6.10;99.90;;;;;;5115532;28;20153;-68
2023/04/30 01:19:45;;;;;;;12.63;10.27;;;6.00;1.00;;;;;;5113927;28;20199;-67
2023/04/30 01:22:26;;;;;;;13.87;10.20;;;6.00;1.00;;;;;;5115243;28;20177;-67
2023/04/30 01:25:14;;;;;;;14.83;10.87;;;6.10;1.00;;;;;;5115238;28;20209;-68
2023/04/30 01:28:05;;;;;;;11.83;10.20;;;6.00;1.00;;;;;;5115348;28;20246;-68
2023/04/30 01:30:32;;;;;;;14.07;10.13;;;5.90;1.00;;;;;;5114304;28;20194;-68
2023/04/30 01:32:58;;;;;;;14.80;9.33;;;6.00;1.00;;;;;;5113858;28;20176;-68
2023/04/30 01:35:56;;;;;;;12.90;9.77;;;6.00;1.00;;;;;;5113882;28;20184;-68
2023/04/30 01:38:43;;;;;;;14.10;9.97;;;6.10;99.90;;;;;;5115069;27;20203;-67
2023/04/30 01:41:14;;;;;;;13.03;10.30;;;6.00;1.00;;;;;;5115415;28;20257;-67
2023/04/30 01:44:05;;;;;;;13.50;10.20;;;6.00;99.90;;;;;;5115544;28;20184;-68
2023/04/30 01:46:30;;;;;;;14.57;10.03;;;6.00;1.00;;;;;;5115844;28;20616;-67
2023/04/30 01:49:39;;;;;;;13.50;10.80;;;6.00;99.90;;;;;;5113546;28;20212;-68
2023/04/30 01:52:24;;;;;;;13.43;10.60;;;5.80;1.00;;;;;;5113617;28;20164;-68
2023/04/30 01:54:59;;;;;;;14.50;10.70;;;5.70;1.00;;;;;;5103076;28;20552;-68
2023/04/30 01:57:41;;;;;;;13.67;10.53;;;5.80;1.00;;;;;;5114516;28;20196;-67
2023/04/30 02:00:11;;;;;;;14.93;11.30;;;5.80;99.90;;;;;;5114749;28;20165;-68
2023/04/30 02:02:37;;;;;;;14.20;10.93;;;5.80;99.90;;;;;;5114688;28;20169;-68
2023/04/30 02:05:03;;;;;;;16.43;11.80;;;5.80;1.00;;;;;;5114502;28;20191;-68
2023/04/30 02:07:37;;;;;;;13.40;11.40;;;5.80;99.90;;;;;;5114138;28;20200;-67
2023/04/30 02:10:04;;;;;;;12.03;10.27;;;5.90;99.90;;;;;;5113026;28;20208;-68
2023/04/30 02:12:29;;;;;;;12.17;10.10;;;5.80;99.90;;;;;;5114436;28;20181;-68
2023/04/30 02:14:55;;;;;;;12.47;10.23;;;5.80;1.00;;;;;;5115084;28;20175;-68
2023/04/30 02:17:21;;;;;;;13.87;10.37;;;5.80;1.00;;;;;;5113048;28;20613;-68
2023/04/30 02:19:46;;;;;;;14.50;10.13;;;5.70;99.90;;;;;;5114526;28;20188;-67
2023/04/30 02:22:12;;;;;;;13.60;10.77;;;5.60;1.00;;;;;;5112835;28;20198;-68
2023/04/30 02:24:38;;;;;;;12.07;9.63;;;5.60;99.90;;;;;;5112949;28;20187;-68
2023/04/30 02:27:04;;;;;;;12.70;10.50;;;5.60;1.00;;;;;;5112668;28;20274;-68
2023/04/30 02:29:29;;;;;;;12.03;10.33;;;5.40;1.00;;;;;;5112763;28;20284;-68
2023/04/30 02:31:58;;;;;;;14.93;10.90;;;5.20;99.90;;;;;;5114050;28;20172;-68
2023/04/30 02:34:24;;;;;;;15.40;10.00;;;5.10;1.00;;;;;;5116368;27;20160;-68
2023/04/30 02:36:49;;;;;;;13.47;11.27;;;5.00;1.00;;;;;;5133215;27;20180;-68
2023/04/30 02:39:15;;;;;;;11.87;10.33;;;4.90;1.00;;;;;;5133418;27;20242;-70
2023/04/30 02:41:41;;;;;;;14.37;11.63;;;4.80;76.30;;;;;;5134751;27;20267;-70
2023/04/30 02:44:07;;;;;;;18.17;12.90;;;4.70;99.90;;;;;;5135570;27;20254;-69
2023/04/30 02:46:32;;;;;;;16.83;12.63;;;4.70;99.90;;;;;;5134544;27;20171;-70
2023/04/30 02:48:58;;;;;;;16.20;12.83;;;4.60;99.90;;;;;;5132964;28;20208;-70
2023/04/30 02:51:24;;;;;;;13.83;12.23;;;4.50;99.90;;;;;;5133063;27;20178;-70
2023/04/30 02:53:50;;;;;;;17.90;12.77;;;4.50;99.90;;;;;;5134235;27;20632;-70
2023/04/30 02:56:16;;;;;;;14.03;12.53;;;4.50;99.90;;;;;;5134971;27;20180;-70
2023/04/30 02:58:42;;;;;;;15.00;11.73;;;4.50;99.90;;;;;;5134314;28;20204;-70
2023/04/30 03:01:07;;;;;;;15.77;11.43;;;4.60;99.90;;;;;;5134505;27;20195;-70
2023/04/30 03:03:33;;;;;;;13.40;11.97;;;4.60;99.90;;;;;;5132996;28;20215;-70
2023/04/30 03:05:59;;;;;;;13.27;11.87;;;4.70;99.90;;;;;;5118531;27;20192;-70
2023/04/30 03:08:25;;;;;;;14.50;11.73;;;4.80;99.90;;;;;;5112243;28;20279;-69
2023/04/30 03:10:51;;;;;;;13.63;11.33;;;4.80;99.90;;;;;;5113708;28;20172;-68
2023/04/30 03:13:17;;;;;;;13.53;11.60;;;4.90;99.90;;;;;;5112407;28;20180;-70
2023/04/30 03:15:43;;;;;;;13.13;11.57;;;4.90;99.90;;;;;;5113300;28;20289;-70
2023/04/30 03:18:09;;;;;;;15.13;11.10;;;4.80;99.90;;;;;;5116716;28;20731;-70
2023/04/30 03:20:35;;;;;;;13.40;11.57;;;4.90;99.90;;;;;;5117598;28;20211;-70
2023/04/30 03:23:02;;;;;;;12.00;10.40;;;4.90;99.90;;;;;;5116125;28;20177;-70
2023/04/30 03:25:27;;;;;;;14.73;11.10;;;4.90;99.90;;;;;;5117846;28;20644;-70
2023/04/30 03:27:53;;;;;;;12.40;10.90;;;4.90;99.90;;;;;;5116233;28;20207;-70
2023/04/30 03:30:19;;;;;;;12.60;10.53;;;4.90;99.90;;;;;;5117410;28;20253;-70
2023/04/30 03:32:45;;;;;;;13.40;11.73;;;4.80;99.90;;;;;;5116183;28;20188;-70
2023/04/30 03:35:11;;;;;;;13.77;11.97;;;4.80;99.90;;;;;;5117271;28;20180;-70
2023/04/30 03:37:36;;;;;;;13.90;12.07;;;4.70;99.90;;;;;;5117572;27;20291;-70
2023/04/30 03:40:03;;;;;;;14.47;11.87;;;4.60;99.90;;;;;;5115922;28;20184;-69
2023/04/30 03:42:29;;;;;;;14.47;11.67;;;4.60;99.90;;;;;;5117300;28;20610;-70
2023/04/30 03:44:55;;;;;;;13.73;10.83;;;4.50;99.90;;;;;;5115927;28;20272;-69
2023/04/30 03:47:20;;;;;;;14.10;11.77;;;4.50;99.90;;;;;;5115881;28;20200;-69
2023/04/30 03:49:53;;;;;;;14.57;11.87;;;4.40;99.90;;;;;;5117558;28;20728;-70
2023/04/30 03:52:20;;;;;;;15.13;11.70;;;4.30;99.90;;;;;;5116271;28;20215;-70
2023/04/30 03:54:45;;;;;;;16.43;12.83;;;4.30;99.90;;;;;;5116199;28;20229;-70
2023/04/30 03:57:12;;;;;;;15.03;12.37;;;4.20;99.90;;;;;;5117113;28;20172;-70
2023/04/30 03:59:39;;;;;;;14.37;11.70;;;4.10;99.90;;;;;;5117660;28;20179;-71
2023/04/30 04:02:06;;;;;;;15.47;12.30;;;4.20;99.90;;;;;;5116358;28;20208;-70
2023/04/30 04:04:32;;;;;;;12.87;11.40;;;4.20;99.90;;;;;;5117697;28;20184;-70
2023/04/30 04:06:59;;;;;;;14.43;11.77;;;4.30;99.90;;;;;;5117989;28;20206;-71
2023/04/30 04:09:26;;;;;;;12.70;11.30;;;4.30;99.90;;;;;;5119280;28;20208;-72
2023/04/30 04:11:51;;;;;;;12.97;11.17;;;4.40;99.90;;;;;;5117124;28;20171;-71
2023/04/30 04:14:17;;;;;;;12.90;11.50;;;4.30;99.90;;;;;;5117546;28;20161;-71
2023/04/30 04:16:43;;;;;;;16.87;11.93;;;4.30;99.90;;;;;;5117552;28;20156;-71
2023/04/30 04:19:09;;;;;;;16.13;11.30;;;4.20;99.90;;;;;;5116813;28;20203;-71
2023/04/30 04:21:35;;;;;;;13.20;11.67;;;4.20;99.90;;;;;;5115497;28;20168;-71
2023/04/30 04:24:07;;;;;;;15.70;11.27;;;4.20;99.90;;;;;;5115465;28;20525;-71
2023/04/30 04:26:36;;;;;;;14.27;11.37;;;4.10;99.90;;;;;;5114995;28;20176;-71
2023/04/30 04:29:04;;;;;;;16.03;11.43;;;4.00;99.90;;;;;;5115587;28;20209;-71
2023/04/30 04:31:30;;;;;;;12.50;11.13;;;4.00;99.90;;;;;;5115434;28;20527;-71
2023/04/30 04:33:59;;;;;;;12.30;11.00;;;3.90;99.90;;;;;;5116836;28;20177;-71
2023/04/30 04:36:29;;;;;;;13.33;11.63;;;3.90;99.90;;;;;;5115055;28;20191;-70
2023/04/30 04:39:00;;;;;;;15.13;11.67;;;3.80;99.90;;;;;;5114810;28;20283;-71
2023/04/30 04:41:31;;;;;;;13.80;11.03;;;3.90;99.90;;;;;;5116222;28;20157;-71
2023/04/30 04:43:57;;;;;;;16.70;11.80;;;3.90;99.90;;;;;;5116417;28;20161;-71
2023/04/30 04:46:24;;;;;;;15.80;11.57;;;3.90;99.90;;;;;;5116371;28;20169;-71
2023/04/30 04:48:51;;;;;;;15.70;11.13;;;3.90;99.90;;;;;;5116095;28;20200;-72
2023/04/30 04:51:17;;;;;;;12.13;10.83;;;3.90;99.90;;;;;;5115042;28;20256;-72
2023/04/30 04:53:42;;;;;;;16.07;11.13;;;3.90;99.90;;;;;;5114485;28;20172;-71
2023/04/30 04:56:08;;;;;;;12.20;10.87;;;4.00;99.90;;;;;;5114851;28;20179;-71
2023/04/30 04:58:34;;;;;;;12.07;10.77;;;4.20;99.90;;;;;;5114665;28;20208;-71
2023/04/30 05:01:00;;;;;;;11.90;10.63;;;4.30;99.90;;;;;;5115645;28;20675;-71
2023/04/30 05:03:28;;;;;;;14.30;11.57;;;4.30;99.90;;;;;;5116054;27;20176;-71
2023/04/30 05:05:54;;;;;;;13.50;12.10;;;4.40;99.90;;;;;;5115055;28;20271;-71
2023/04/30 05:08:20;;;;;;;12.90;11.50;;;4.50;99.90;;;;;;5115648;28;20228;-71
2023/04/30 05:10:46;;;;;;;15.50;12.37;;;4.60;99.90;;;;;;5114396;28;20235;-71
2023/04/30 05:13:12;;;;;;;13.97;11.77;;;4.70;99.90;;;;;;5097780;28;20180;-71
2023/04/30 05:15:37;;;;;;;13.67;11.27;;;4.70;99.90;;;;;;5115499;28;20632;-71
2023/04/30 05:18:03;;;;;;;15.33;11.77;;;4.80;99.90;;;;;;5114233;28;20203;-70
2023/04/30 05:20:29;;;;;;;14.50;11.97;;;4.80;99.90;;;;;;5115495;28;20210;-71
2023/04/30 05:22:55;;;;;;;13.63;12.00;;;4.90;99.90;;;;;;5113765;28;20188;-71
2023/04/30 05:25:20;;;;;;;14.07;12.43;;;4.90;99.90;;;;;;5114030;28;20169;-71
2023/04/30 05:27:46;;;;;;;16.03;12.80;;;5.00;99.90;;;;;;5115560;28;20204;-71
2023/04/30 05:30:14;;;;;;;14.40;12.40;;;5.10;99.90;;;;;;5115451;28;20239;-71
2023/04/30 05:32:40;;;;;;;20.03;14.07;;;5.10;99.90;;;;;;5114062;28;20233;-71
2023/04/30 05:35:06;;;;;;;18.23;14.73;;;5.20;99.90;;;;;;5115116;28;20184;-71
2023/04/30 05:37:32;;;;;;;18.27;13.97;;;5.40;99.90;;;;;;5115027;28;20656;-71
2023/04/30 05:39:58;;;;;;;17.40;14.10;;;5.50;99.90;;;;;;5113404;28;20180;-71
2023/04/30 05:42:24;;;;;;;18.50;14.20;;;5.60;99.90;;;;;;5115056;28;20179;-71
2023/04/30 05:44:50;;;;;;;18.70;14.40;;;5.70;99.90;;;;;;5114963;28;20225;-71
2023/04/30 05:47:16;;;;;;;18.53;14.67;;;5.70;99.90;;;;;;5117127;28;20207;-69
2023/04/30 05:49:42;;;;;;;19.13;14.87;;;5.90;99.90;;;;;;5114435;28;20204;-76
2023/04/30 05:52:08;;;;;;;18.70;15.43;;;6.00;99.90;;;;;;5114477;28;20637;-75
2023/04/30 05:54:33;;;;;;;17.47;15.13;;;6.10;99.90;;;;;;5114538;28;20247;-70
2023/04/30 05:56:59;;;;;;;16.70;14.93;;;6.20;99.90;;;;;;5114838;28;20244;-70
2023/04/30 05:59:25;;;;;;;22.83;16.80;;;6.40;99.90;;;;;;5114601;28;20192;-70
2023/04/30 06:01:52;;;;;;;20.23;16.13;;;6.50;99.90;;;;;;5113170;28;20573;-70
2023/04/30 06:04:18;;;;;;;20.87;16.77;;;6.60;99.90;;;;;;5114438;28;20617;-70
2023/04/30 06:06:43;;;;;;;24.87;17.40;;;6.70;99.90;;;;;;5115867;28;20210;-73
2023/04/30 06:09:09;;;;;;;23.43;18.07;;;6.80;99.90;;;;;;5115616;28;20208;-76
2023/04/30 06:11:39;;;;;;;27.27;17.30;;;6.90;99.90;;;;;;5113514;28;20187;-77
2023/04/30 06:14:05;;;;;;;25.20;17.90;;;7.10;99.90;;;;;;5113795;28;20632;-75
2023/04/30 06:16:31;;;;;;;24.07;17.90;;;7.20;99.90;;;;;;5113467;28;20172;-74
2023/04/30 06:18:56;;;;;;;23.53;18.47;;;7.30;99.90;;;;;;5114948;28;20192;-75
2023/04/30 06:21:25;;;;;;;29.60;19.00;;;7.40;99.90;;;;;;5115253;28;20214;-77
2023/04/30 06:23:54;;;;;;;22.57;18.47;;;7.50;99.90;;;;;;5113529;28;20181;-73
2023/04/30 06:26:20;;;;;;;29.20;18.83;;;7.60;99.90;;;;;;5114994;28;20218;-74
2023/04/30 06:28:45;;;;;;;23.77;18.30;;;7.70;99.90;;;;;;5120475;28;20204;-75
2023/04/30 06:31:13;;;;;;;22.37;17.33;;;7.80;99.90;;;;;;5128086;28;20159;-75
2023/04/30 06:33:42;;;;;;;23.60;18.53;;;7.90;99.90;;;;;;5128563;28;20152;-74
2023/04/30 06:36:10;;;;;;;23.67;17.70;;;8.00;99.90;;;;;;5144620;27;20238;-73
2023/04/30 06:38:36;;;;;;;24.53;18.00;;;8.10;1.00;;;;;;5138858;27;20192;-70
2023/04/30 06:41:02;;;;;;;21.50;17.77;;;8.20;99.90;;;;;;5134758;27;20163;-70
2023/04/30 06:43:28;;;;;;;25.63;18.17;;;8.30;1.00;;;;;;5135078;27;20166;-77
2023/04/30 06:45:53;;;;;;;22.47;17.40;;;8.30;99.90;;;;;;5135445;28;20632;-79
2023/04/30 06:48:19;;;;;;;23.13;17.23;;;8.40;99.90;;;;;;5136450;27;20188;-71
2023/04/30 06:50:46;;;;;;;24.03;18.03;;;8.60;99.90;;;;;;5135794;27;20198;-69
2023/04/30 06:53:12;;;;;;;23.50;16.73;;;8.80;1.00;;;;;;5139456;27;20254;-79
2023/04/30 06:55:38;;;;;;;26.80;18.37;;;8.90;1.00;;;;;;5140533;27;20580;-78
2023/04/30 06:58:04;;;;;;;24.60;16.57;;;9.00;99.90;;;;;;5138979;27;20195;-78
2023/04/30 07:00:31;;;;;;;23.00;16.93;;;9.10;99.90;;;;;;5140123;27;20278;-78
2023/04/30 07:02:59;;;;;;;25.83;18.33;;;9.20;99.90;;;;;;5140641;27;20187;-69
2023/04/30 07:05:25;;;;;;;25.67;17.87;;;9.40;1.00;;;;;;5126398;27;20198;-69
2023/04/30 07:07:51;;;;;;;21.87;16.47;;;9.40;1.00;;;;;;5118193;28;20200;-69
2023/04/30 07:10:17;;;;;;;22.33;17.67;;;9.50;34.00;;;;;;5117087;28;20256;-69
2023/04/30 07:12:44;;;;;;;22.97;16.70;;;9.60;1.00;;;;;;5119498;28;20160;-69
2023/04/30 07:15:10;;;;;;;18.27;15.10;;;9.60;1.00;;;;;;5116836;28;20210;-69
2023/04/30 07:17:40;;;;;;;21.63;14.93;;;9.70;99.90;;;;;;5118444;28;20689;-68
2023/04/30 07:20:07;;;;;;;18.57;15.13;;;9.80;1.00;;;;;;5116630;28;20180;-68
2023/04/30 07:22:33;;;;;;;21.63;15.50;;;9.90;1.00;;;;;;5117618;28;20209;-69
2023/04/30 07:24:59;;;;;;;19.50;15.00;;;10.00;99.90;;;;;;5116272;28;20184;-68
2023/04/30 07:27:27;;;;;;;21.07;14.40;;;10.00;99.90;;;;;;5116248;28;20203;-68
2023/04/30 07:29:53;;;;;;;18.83;14.13;;;10.20;1.00;;;;;;5116142;28;20204;-68
2023/04/30 07:32:19;;;;;;;20.00;14.80;;;10.20;99.90;;;;;;5117443;28;20168;-68
2023/04/30 07:34:45;;;;;;;17.13;13.67;;;10.30;99.90;;;;;;5117374;28;20185;-68
2023/04/30 07:37:11;;;;;;;16.97;14.07;;;10.40;97.10;;;;;;5117882;28;20525;-68
2023/04/30 07:39:37;;;;;;;17.03;13.47;;;10.50;1.00;;;;;;5117367;28;20649;-71
2023/04/30 07:42:03;;;;;;;16.47;13.90;;;10.60;1.00;;;;;;5116468;28;20214;-71
2023/04/30 07:44:30;;;;;;;16.10;13.80;;;10.70;1.00;;;;;;5117374;28;20183;-71
2023/04/30 07:46:55;;;;;;;18.87;12.83;;;10.80;99.90;;;;;;5116189;28;20625;-71
2023/04/30 07:49:21;;;;;;;19.33;14.00;;;10.90;99.90;;;;;;5117081;28;20287;-73
2023/04/30 07:51:47;;;;;;;16.70;13.73;;;11.00;85.40;;;;;;5117589;28;20191;-72
2023/04/30 07:54:13;;;;;;;16.90;12.85;;;11.00;99.90;;;;;;5115762;28;20208;-72
2023/04/30 07:56:39;;;;;;;15.65;12.20;;;11.10;99.90;;;;;;5118787;28;20204;-78
2023/04/30 07:59:05;;;;;;;16.23;12.50;;;11.10;1.00;;;;;;5117417;28;20196;-70
2023/04/30 08:01:31;;;;;;;16.25;12.63;;;11.20;1.00;;;;;;5116996;28;20271;-72
2023/04/30 08:03:57;;;;;;;18.35;12.68;;;11.30;1.00;;;;;;5115973;28;20208;-74
2023/04/30 08:06:23;;;;;;;17.38;12.95;;;11.30;99.90;;;;;;5115675;28;20216;-75
2023/04/30 08:08:49;;;;;;;16.67;12.30;;;11.40;1.00;;;;;;5115294;28;20204;-70
2023/04/30 08:11:15;;;;;;;15.85;12.43;;;11.60;1.00;;;;;;5117589;28;20172;-71
2023/04/30 08:13:41;;;;;;;14.40;10.35;;;11.70;99.90;;;;;;5117094;28;20658;-71
2023/04/30 08:16:07;;;;;;;13.95;10.82;;;11.90;99.90;;;;;;5116938;28;20172;-74
2023/04/30 08:18:33;;;;;;;14.55;11.25;;;12.00;99.90;;;;;;5116735;28;20192;-76
2023/04/30 08:21:00;;;;;;;13.05;10.45;;;12.20;99.90;;;;;;5116714;28;20181;-76
2023/04/30 08:23:26;;;;;;;11.98;9.75;;;12.60;51.00;;;;;;5116428;28;20200;-72
2023/04/30 08:25:52;;;;;;;11.68;9.10;;;13.40;1.00;;;;;;5115198;28;20176;-70
2023/04/30 08:28:18;;;;;;;10.80;8.63;;;14.60;99.90;;;;;;5115200;28;20200;-70
2023/04/30 08:30:44;;;;;;;10.07;7.55;;;15.80;28.50;;;;;;5116836;28;20557;-70
2023/04/30 08:33:10;;;;;;;10.55;8.00;;;16.60;1.00;;;;;;5117421;28;20168;-71
2023/04/30 08:35:35;;;;;;;9.35;7.10;;;17.20;1.00;;;;;;5117681;28;20678;-70
2023/04/30 08:38:01;;;;;;;11.13;6.43;;;17.70;1.00;;;;;;5115474;28;20188;-71
2023/04/30 08:40:27;;;;;;;10.30;7.15;;;18.40;1.00;;;;;;5117109;28;20644;-77
2023/04/30 08:43:07;;;;;;;10.73;7.13;;;18.80;1.00;;;;;;5117599;28;20173;-77
2023/04/30 08:45:33;;;;;;;8.32;6.00;;;19.10;1.00;;;;;;5115608;28;20538;-71
2023/04/30 08:48:00;;;;;;;8.38;6.30;;;19.20;1.00;;;;;;5116093;28;20189;-72
2023/04/30 08:50:27;;;;;;;8.13;5.78;;;19.10;1.00;;;;;;5114924;28;20207;-72
2023/04/30 08:52:53;;;;;;;7.72;6.10;;;19.00;1.00;;;;;;5114895;28;20272;-71
2023/04/30 08:55:20;;;;;;;7.97;6.40;;;19.10;1.00;;;;;;5119937;28;20620;-68
2023/04/30 08:57:46;;;;;;;6.43;5.22;;;19.30;1.00;;;;;;5118563;28;20193;-69
2023/04/30 09:00:12;;;;;;;7.13;5.47;;;19.50;1.00;;;;;;5119083;28;20236;-69
2023/04/30 09:02:43;;;;;;;7.15;6.07;;;19.80;1.00;;;;;;5117908;28;20188;-72
2023/04/30 09:05:11;;;;;;;7.68;5.72;;;20.10;1.00;;;;;;5128112;27;20175;-68
2023/04/30 09:07:42;;;;;;;9.38;6.07;;;19.90;1.00;;;;;;5140130;27;20241;-68
2023/04/30 09:10:26;;;;;;;8.43;6.72;;;19.90;1.00;;;;;;5139756;27;20199;-67
2023/04/30 09:13:08;;;;;;;8.82;6.68;;;20.10;1.00;;;;;;5137331;27;20638;-71
2023/04/30 09:15:37;;;;;;;12.13;7.10;;;20.10;1.00;;;;;;5138674;27;20161;-71
2023/04/30 09:18:16;;;;;;;9.82;6.45;;;20.00;1.00;;;;;;5141154;27;20240;-70
2023/04/30 09:21:02;;;;;;;7.95;6.63;;;20.10;1.00;;;;;;5139489;27;20176;-68
2023/04/30 09:23:28;;;;;;;10.15;5.82;;;20.40;1.00;;;;;;5135596;27;20542;-68
2023/04/30 09:25:55;;;;;;;7.97;6.28;;;20.50;1.00;;;;;;5134751;27;20287;-68
2023/04/30 09:28:24;;;;;;;8.05;6.55;;;20.60;1.00;;;;;;5136209;27;20647;-68
2023/04/30 09:30:50;;;;;;;7.50;5.30;;;20.60;1.00;;;;;;5135555;27;20172;-68
2023/04/30 09:33:16;;;;;;;8.52;5.80;;;20.90;1.00;;;;;;5134236;27;20601;-68
2023/04/30 09:35:42;;;;;;;6.55;5.20;;;21.40;1.00;;;;;;5121065;27;20208;-68
2023/04/30 09:38:27;;;;;;;6.78;5.32;;;21.30;1.00;;;;;;5114843;28;20196;-68
2023/04/30 09:40:53;;;;;;;7.05;5.32;;;21.50;1.00;;;;;;5113645;28;20217;-68
2023/04/30 09:43:18;;;;;;;8.38;5.20;;;21.50;1.00;;;;;;5114858;28;20169;-68
2023/04/30 09:45:47;;;;;;;5.65;4.43;;;21.50;1.00;;;;;;5114824;28;20200;-68
2023/04/30 09:48:24;;;;;;;5.75;4.45;;;21.00;1.00;;;;;;5113804;28;20253;-68
2023/04/30 09:50:51;;;;;;;5.78;4.57;;;20.80;1.00;;;;;;5114631;28;20176;-68
2023/04/30 09:53:17;;;;;;;5.40;4.25;;;21.00;1.00;;;;;;5113229;28;20665;-68
2023/04/30 09:55:48;;;;;;;6.45;4.35;;;21.30;1.00;;;;;;5113578;28;20183;-69
2023/04/30 09:58:15;;;;;;;5.75;3.97;;;20.80;1.00;;;;;;5115153;27;20188;-68
2023/04/30 10:00:42;;;;;;;4.70;3.83;;;20.60;1.00;;;;;;5114346;28;20199;-68
2023/04/30 10:03:12;;;;;;;6.22;4.13;;;20.50;1.00;;;;;;5114431;28;20310;-68
2023/04/30 10:05:46;;;;;;;6.10;4.63;;;20.40;1.00;;;;;;5113750;28;20253;-71
2023/04/30 10:08:29;;;;;;;8.38;4.53;;;20.60;1.00;;;;;;5112932;28;20563;-71
2023/04/30 10:11:02;;;;;;;5.88;4.68;;;20.90;1.00;;;;;;5113198;28;20180;-71
2023/04/30 10:13:31;;;;;;;6.63;4.57;;;20.70;1.00;;;;;;5113132;28;20258;-71
2023/04/30 10:16:06;;;;;;;8.05;5.25;;;20.70;1.00;;;;;;5114285;28;20171;-71
2023/04/30 10:18:39;;;;;;;7.55;4.90;;;20.30;1.00;;;;;;5114198;28;20317;-71
2023/04/30 10:21:11;;;;;;;5.63;4.75;;;19.90;1.00;;;;;;5112982;28;20587;-71
2023/04/30 10:23:42;;;;;;;5.78;4.72;;;19.70;1.00;;;;;;5114422;28;20520;-69
2023/04/30 10:26:11;;;;;;;6.00;4.65;;;19.70;1.00;;;;;;5114639;28;20153;-69
2023/04/30 10:28:37;;;;;;;5.93;4.55;;;19.50;1.00;;;;;;5114165;28;20188;-69
2023/04/30 10:31:06;;;;;;;5.90;4.95;;;19.20;1.00;;;;;;5114088;28;20671;-69
2023/04/30 10:33:51;;;;;;;6.50;5.07;;;19.00;1.00;;;;;;5112677;28;20172;-69
2023/04/30 10:36:43;;;;;;;6.00;4.78;;;18.90;1.00;;;;;;5114263;28;20172;-69
2023/04/30 10:39:10;;;;;;;5.97;5.10;;;18.70;1.00;;;;;;5113747;28;20192;-69
2023/04/30 10:41:36;;;;;;;9.45;5.30;;;18.40;1.00;;;;;;5112892;28;20183;-69
2023/04/30 10:44:04;;;;;;;6.82;5.13;;;18.30;1.00;;;;;;5114480;28;20172;-69
2023/04/30 10:46:30;;;;;;;5.30;4.80;;;18.30;1.00;;;;;;5114048;28;20225;-69
2023/04/30 10:48:56;;;;;;;5.65;4.55;;;18.20;1.00;;;;;;5112470;28;20212;-69
2023/04/30 10:51:22;;;;;;;5.70;5.07;;;18.10;1.00;;;;;;5114022;28;20157;-69
2023/04/30 10:53:53;;;;;;;7.22;5.22;;;17.90;1.00;;;;;;5113917;28;20179;-69
2023/04/30 10:56:31;;;;;;;6.28;4.88;;;17.90;1.00;;;;;;5114318;28;20542;-69
2023/04/30 10:59:01;;;;;;;5.40;4.60;;;17.80;1.00;;;;;;5114679;28;20640;-70
2023/04/30 11:01:28;;;;;;;7.45;5.47;;;17.70;1.00;;;;;;5113952;28;20199;-69
2023/04/30 11:04:10;;;;;;;5.72;4.78;;;17.70;1.00;;;;;;5114707;28;20709;-70
2023/04/30 11:06:49;;;;;;;7.05;5.22;;;18.00;1.00;;;;;;5114265;28;20188;-71
2023/04/30 11:09:15;;;;;;;8.95;6.28;;;18.00;1.00;;;;;;5112599;28;20543;-71
2023/04/30 11:11:44;;;;;;;6.50;5.55;;;18.20;1.00;;;;;;5113294;28;20173;-71
2023/04/30 11:14:11;;;;;;;7.70;5.38;;;18.30;1.00;;;;;;5113847;28;20596;-71
2023/04/30 11:16:37;;;;;;;5.38;4.72;;;18.40;1.00;;;;;;5113039;28;20203;-71
2023/04/30 11:19:10;;;;;;;5.80;4.80;;;18.40;1.00;;;;;;5112658;28;20199;-71
2023/04/30 11:22:01;;;;;;;6.82;4.82;;;18.40;1.00;;;;;;5114146;28;20173;-71
2023/04/30 11:24:53;;;;;;;6.95;4.88;;;18.60;1.00;;;;;;5113843;28;20598;-71
2023/04/30 11:27:23;;;;;;;8.18;6.03;;;18.70;1.00;;;;;;5113482;28;20636;-72
2023/04/30 11:29:50;;;;;;;8.98;5.57;;;18.90;1.00;;;;;;5113512;28;20197;-71
2023/04/30 11:32:18;;;;;;;8.05;4.80;;;19.00;1.00;;;;;;5112103;28;20229;-71
2023/04/30 11:34:45;;;;;;;9.88;5.53;;;19.20;1.00;;;;;;5112111;28;20550;-71
2023/04/30 11:37:23;;;;;;;5.72;4.43;;;19.20;1.00;;;;;;5113833;28;20180;-72
2023/04/30 11:39:50;;;;;;;6.30;5.03;;;19.30;1.00;;;;;;5117712;28;20214;-73
2023/04/30 11:42:20;;;;;;;8.35;5.13;;;19.30;1.00;;;;;;5117096;28;20659;-72
2023/04/30 11:44:46;;;;;;;6.38;5.30;;;19.00;1.00;;;;;;5115808;28;20228;-72
2023/04/30 11:47:15;;;;;;;7.80;5.53;;;18.80;1.00;;;;;;5116945;28;20167;-72
2023/04/30 11:49:44;;;;;;;6.80;5.07;;;19.10;1.00;;;;;;5116877;28;20211;-72
2023/04/30 11:52:12;;;;;;;8.68;5.03;;;19.20;1.00;;;;;;5115594;28;20180;-72
2023/04/30 11:54:38;;;;;;;5.75;4.10;;;19.40;1.00;;;;;;5115439;28;20683;-73
2023/04/30 11:57:05;;;;;;;6.00;4.32;;;19.40;1.00;;;;;;5116915;27;20177;-72
2023/04/30 11:59:35;;;;;;;6.15;4.53;;;19.60;1.00;;;;;;5115289;28;20215;-73
2023/04/30 12:02:01;;;;;;;5.90;4.80;;;19.70;1.00;;;;;;5116791;28;20275;-73
2023/04/30 12:04:27;;;;;;;6.55;4.68;;;19.90;1.00;;;;;;5115485;28;20267;-72
2023/04/30 12:06:52;;;;;;;5.85;4.60;;;20.00;1.00;;;;;;5115664;28;20176;-73
2023/04/30 12:09:18;;;;;;;5.55;4.47;;;20.10;1.00;;;;;;5116420;28;20753;-73
2023/04/30 12:11:46;;;;;;;7.93;4.60;;;20.20;1.00;;;;;;5115471;28;20215;-73
2023/04/30 12:14:13;;;;;;;8.02;4.40;;;20.10;1.00;;;;;;5115225;28;20173;-73
2023/04/30 12:16:50;;;;;;;6.65;4.18;;;20.20;1.00;;;;;;5115196;28;20173;-73
2023/04/30 12:19:17;;;;;;;5.57;4.03;;;20.30;1.00;;;;;;5116780;28;20196;-73
2023/04/30 12:21:47;;;;;;;5.15;4.03;;;20.50;1.00;;;;;;5115471;28;20237;-73
2023/04/30 12:24:18;;;;;;;7.18;3.95;;;20.70;1.00;;;;;;5116722;28;20209;-73
2023/04/30 12:26:44;;;;;;;5.22;4.15;;;20.80;1.00;;;;;;5115241;28;20200;-73
2023/04/30 12:29:15;;;;;;;4.22;3.70;;;20.90;1.00;;;;;;5114897;28;20211;-73
2023/04/30 12:31:42;;;;;;;5.93;4.10;;;21.10;1.00;;;;;;5116526;28;20157;-73
2023/04/30 12:34:11;;;;;;;6.72;3.97;;;21.10;1.00;;;;;;5116343;28;20223;-73
2023/04/30 12:36:41;;;;;;;4.88;4.00;;;21.10;1.00;;;;;;5115350;28;20168;-73
2023/04/30 12:39:11;;;;;;;5.15;3.35;;;20.90;1.00;;;;;;5116331;28;20184;-73
2023/04/30 12:41:59;;;;;;;4.18;2.95;;;21.10;1.00;;;;;;5116468;28;20231;-69
2023/04/30 12:44:26;;;;;;;3.80;3.08;;;21.50;1.00;;;;;;5115367;28;20255;-69
2023/04/30 12:46:59;;;;;;;4.20;3.55;;;21.60;1.00;;;;;;5116355;28;20172;-69
2023/04/30 12:49:26;;;;;;;5.30;3.80;;;21.30;1.00;;;;;;5114314;28;20215;-73
2023/04/30 12:52:08;;;;;;;5.18;4.03;;;21.20;1.00;;;;;;5115518;28;20172;-71